sensor_id;sensor_type;location;lat;lon;timestamp;P1;durP1;ratioP1;P2;durP2;ratioP2
25123;SDS011;13104;51.030;4.686;2022-11-15T00:02:26;35.42;;;19.95;;
25123;SDS011;13104;51.030;4.686;2022-11-15T00:04:52;29.13;;;18.70;;
25123;SDS011;13104;51.030;4.686;2022-11-15T00:07:18;31.15;;;19.33;;
25123;SDS011;13104;51.030;4.686;2022-11-15T00:09:44;36.70;;;19.52;;
25123;SDS011;13104;51.030;4.686;2022-11-15T00:12:10;33.92;;;18.92;;
25123;SDS011;13104;51.030;4.686;2022-11-15T00:14:36;32.13;;;20.05;;
25123;SDS011;13104;51.030;4.686;2022-11-15T00:17:02;27.77;;;17.38;;
25123;SDS011;13104;51.030;4.686;2022-11-15T00:19:28;35.30;;;19.00;;
25123;SDS011;13104;51.030;4.686;2022-11-15T00:21:54;32.03;;;18.52;;
25123;SDS011;13104;51.030;4.686;2022-11-15T00:24:20;34.47;;;19.15;;
25123;SDS011;13104;51.030;4.686;2022-11-15T00:26:47;30.08;;;19.02;;
25123;SDS011;13104;51.030;4.686;2022-11-15T00:29:13;31.23;;;19.02;;
25123;SDS011;13104;51.030;4.686;2022-11-15T00:31:39;32.53;;;18.83;;
25123;SDS011;13104;51.030;4.686;2022-11-15T00:34:05;31.55;;;19.20;;
25123;SDS011;13104;51.030;4.686;2022-11-15T00:36:34;31.00;;;19.25;;
25123;SDS011;13104;51.030;4.686;2022-11-15T00:39:00;27.17;;;18.52;;
25123;SDS011;13104;51.030;4.686;2022-11-15T00:41:26;35.45;;;19.52;;
25123;SDS011;13104;51.030;4.686;2022-11-15T00:43:52;27.35;;;17.23;;
25123;SDS011;13104;51.030;4.686;2022-11-15T00:46:18;34.28;;;18.95;;
25123;SDS011;13104;51.030;4.686;2022-11-15T00:48:44;31.02;;;19.00;;
25123;SDS011;13104;51.030;4.686;2022-11-15T00:51:10;28.65;;;18.77;;
25123;SDS011;13104;51.030;4.686;2022-11-15T00:53:36;31.50;;;18.55;;
25123;SDS011;13104;51.030;4.686;2022-11-15T00:56:02;32.25;;;19.25;;
25123;SDS011;13104;51.030;4.686;2022-11-15T00:58:28;29.92;;;19.55;;
25123;SDS011;13104;51.030;4.686;2022-11-15T01:00:54;26.50;;;18.10;;
25123;SDS011;13104;51.030;4.686;2022-11-15T01:03:20;34.13;;;20.33;;
25123;SDS011;13104;51.030;4.686;2022-11-15T01:05:47;30.25;;;19.77;;
25123;SDS011;13104;51.030;4.686;2022-11-15T01:08:14;34.03;;;19.52;;
25123;SDS011;13104;51.030;4.686;2022-11-15T01:10:40;30.52;;;20.30;;
25123;SDS011;13104;51.030;4.686;2022-11-15T01:13:06;29.73;;;18.23;;
25123;SDS011;13104;51.030;4.686;2022-11-15T01:15:32;31.40;;;19.15;;
25123;SDS011;13104;51.030;4.686;2022-11-15T01:17:58;32.83;;;19.90;;
25123;SDS011;13104;51.030;4.686;2022-11-15T01:20:24;32.58;;;19.45;;
25123;SDS011;13104;51.030;4.686;2022-11-15T01:22:50;29.55;;;19.48;;
25123;SDS011;13104;51.030;4.686;2022-11-15T01:25:16;28.58;;;19.10;;
25123;SDS011;13104;51.030;4.686;2022-11-15T01:27:42;27.77;;;18.75;;
25123;SDS011;13104;51.030;4.686;2022-11-15T01:30:09;31.08;;;18.38;;
25123;SDS011;13104;51.030;4.686;2022-11-15T01:32:35;27.88;;;18.60;;
25123;SDS011;13104;51.030;4.686;2022-11-15T01:35:01;29.02;;;19.00;;
25123;SDS011;13104;51.030;4.686;2022-11-15T01:37:27;29.70;;;19.23;;
25123;SDS011;13104;51.030;4.686;2022-11-15T01:39:53;34.05;;;19.08;;
25123;SDS011;13104;51.030;4.686;2022-11-15T01:42:19;28.83;;;18.35;;
25123;SDS011;13104;51.030;4.686;2022-11-15T01:44:49;34.00;;;19.20;;
25123;SDS011;13104;51.030;4.686;2022-11-15T01:49:50;30.77;;;18.25;;
25123;SDS011;13104;51.030;4.686;2022-11-15T01:52:17;31.00;;;19.95;;
25123;SDS011;13104;51.030;4.686;2022-11-15T01:54:44;30.88;;;19.88;;
25123;SDS011;13104;51.030;4.686;2022-11-15T01:57:11;32.92;;;20.15;;
25123;SDS011;13104;51.030;4.686;2022-11-15T01:59:38;37.75;;;21.92;;
25123;SDS011;13104;51.030;4.686;2022-11-15T02:02:05;33.55;;;21.80;;
25123;SDS011;13104;51.030;4.686;2022-11-15T02:04:32;36.58;;;21.83;;
25123;SDS011;13104;51.030;4.686;2022-11-15T02:06:58;34.50;;;20.75;;
25123;SDS011;13104;51.030;4.686;2022-11-15T02:09:26;36.40;;;23.05;;
25123;SDS011;13104;51.030;4.686;2022-11-15T02:11:52;39.65;;;23.60;;
25123;SDS011;13104;51.030;4.686;2022-11-15T02:14:20;42.75;;;22.88;;
25123;SDS011;13104;51.030;4.686;2022-11-15T02:16:53;37.25;;;23.92;;
25123;SDS011;13104;51.030;4.686;2022-11-15T02:32:52;40.88;;;24.10;;
25123;SDS011;13104;51.030;4.686;2022-11-15T02:37:55;39.67;;;25.33;;
25123;SDS011;13104;51.030;4.686;2022-11-15T02:40:38;40.10;;;24.63;;
25123;SDS011;13104;51.030;4.686;2022-11-15T02:43:08;38.60;;;23.83;;
25123;SDS011;13104;51.030;4.686;2022-11-15T02:45:57;37.38;;;23.23;;
25123;SDS011;13104;51.030;4.686;2022-11-15T02:48:25;37.75;;;23.40;;
25123;SDS011;13104;51.030;4.686;2022-11-15T02:50:52;37.45;;;22.83;;
25123;SDS011;13104;51.030;4.686;2022-11-15T02:53:18;35.95;;;23.27;;
25123;SDS011;13104;51.030;4.686;2022-11-15T02:55:47;36.28;;;22.17;;
25123;SDS011;13104;51.030;4.686;2022-11-15T03:03:42;38.58;;;21.05;;
25123;SDS011;13104;51.030;4.686;2022-11-15T03:06:15;37.83;;;20.65;;
25123;SDS011;13104;51.030;4.686;2022-11-15T03:08:55;26.50;;;15.23;;
25123;SDS011;13104;51.030;4.686;2022-11-15T03:11:23;31.27;;;19.88;;
25123;SDS011;13104;51.030;4.686;2022-11-15T03:16:38;34.75;;;19.88;;
25123;SDS011;13104;51.030;4.686;2022-11-15T03:21:31;35.75;;;19.50;;
25123;SDS011;13104;51.030;4.686;2022-11-15T03:23:59;33.30;;;20.70;;
25123;SDS011;13104;51.030;4.686;2022-11-15T03:26:27;33.03;;;20.35;;
25123;SDS011;13104;51.030;4.686;2022-11-15T03:28:58;38.50;;;21.20;;
25123;SDS011;13104;51.030;4.686;2022-11-15T03:31:27;34.13;;;20.17;;
25123;SDS011;13104;51.030;4.686;2022-11-15T03:34:29;32.47;;;19.40;;
25123;SDS011;13104;51.030;4.686;2022-11-15T03:36:57;31.77;;;19.67;;
25123;SDS011;13104;51.030;4.686;2022-11-15T03:39:23;33.50;;;19.13;;
25123;SDS011;13104;51.030;4.686;2022-11-15T03:41:52;32.92;;;20.48;;
25123;SDS011;13104;51.030;4.686;2022-11-15T03:47:00;33.45;;;19.38;;
25123;SDS011;13104;51.030;4.686;2022-11-15T03:49:31;30.58;;;18.63;;
25123;SDS011;13104;51.030;4.686;2022-11-15T03:51:59;30.65;;;19.40;;
25123;SDS011;13104;51.030;4.686;2022-11-15T03:54:26;33.50;;;19.35;;
25123;SDS011;13104;51.030;4.686;2022-11-15T03:56:52;30.88;;;18.20;;
25123;SDS011;13104;51.030;4.686;2022-11-15T03:59:18;26.45;;;18.73;;
25123;SDS011;13104;51.030;4.686;2022-11-15T04:01:44;32.28;;;18.80;;
25123;SDS011;13104;51.030;4.686;2022-11-15T04:04:10;33.20;;;19.15;;
25123;SDS011;13104;51.030;4.686;2022-11-15T04:06:36;31.58;;;19.05;;
25123;SDS011;13104;51.030;4.686;2022-11-15T04:09:03;27.85;;;18.83;;
25123;SDS011;13104;51.030;4.686;2022-11-15T04:11:29;23.67;;;17.45;;
25123;SDS011;13104;51.030;4.686;2022-11-15T04:13:55;30.35;;;17.77;;
25123;SDS011;13104;51.030;4.686;2022-11-15T04:16:21;28.85;;;18.42;;
25123;SDS011;13104;51.030;4.686;2022-11-15T04:18:47;26.05;;;17.27;;
25123;SDS011;13104;51.030;4.686;2022-11-15T04:21:33;24.98;;;15.45;;
25123;SDS011;13104;51.030;4.686;2022-11-15T04:24:18;16.60;;;10.30;;
25123;SDS011;13104;51.030;4.686;2022-11-15T04:26:44;22.13;;;14.52;;
25123;SDS011;13104;51.030;4.686;2022-11-15T04:29:10;27.60;;;15.23;;
25123;SDS011;13104;51.030;4.686;2022-11-15T04:31:55;16.70;;;9.75;;
25123;SDS011;13104;51.030;4.686;2022-11-15T04:34:21;25.73;;;13.50;;
25123;SDS011;13104;51.030;4.686;2022-11-15T04:36:47;23.95;;;13.15;;
25123;SDS011;13104;51.030;4.686;2022-11-15T04:39:32;21.98;;;12.55;;
25123;SDS011;13104;51.030;4.686;2022-11-15T04:41:58;22.20;;;12.90;;
25123;SDS011;13104;51.030;4.686;2022-11-15T04:44:24;18.13;;;10.75;;
25123;SDS011;13104;51.030;4.686;2022-11-15T04:46:50;20.63;;;10.52;;
25123;SDS011;13104;51.030;4.686;2022-11-15T04:49:16;17.60;;;10.32;;
25123;SDS011;13104;51.030;4.686;2022-11-15T04:51:42;19.08;;;9.40;;
25123;SDS011;13104;51.030;4.686;2022-11-15T04:54:08;14.20;;;8.98;;
25123;SDS011;13104;51.030;4.686;2022-11-15T04:56:34;16.60;;;9.32;;
25123;SDS011;13104;51.030;4.686;2022-11-15T04:59:00;17.40;;;9.00;;
25123;SDS011;13104;51.030;4.686;2022-11-15T05:01:26;16.33;;;8.18;;
25123;SDS011;13104;51.030;4.686;2022-11-15T05:03:53;17.55;;;8.70;;
25123;SDS011;13104;51.030;4.686;2022-11-15T05:06:38;12.10;;;6.38;;
25123;SDS011;13104;51.030;4.686;2022-11-15T05:09:04;14.27;;;8.20;;
25123;SDS011;13104;51.030;4.686;2022-11-15T05:11:30;18.52;;;8.65;;
25123;SDS011;13104;51.030;4.686;2022-11-15T05:13:56;15.75;;;8.30;;
25123;SDS011;13104;51.030;4.686;2022-11-15T05:16:22;15.27;;;8.43;;
25123;SDS011;13104;51.030;4.686;2022-11-15T05:18:52;15.07;;;7.38;;
25123;SDS011;13104;51.030;4.686;2022-11-15T05:21:18;14.05;;;7.95;;
25123;SDS011;13104;51.030;4.686;2022-11-15T05:23:44;12.95;;;7.25;;
25123;SDS011;13104;51.030;4.686;2022-11-15T05:26:11;15.73;;;7.28;;
25123;SDS011;13104;51.030;4.686;2022-11-15T05:28:37;14.40;;;7.47;;
25123;SDS011;13104;51.030;4.686;2022-11-15T05:31:04;12.63;;;7.15;;
25123;SDS011;13104;51.030;4.686;2022-11-15T05:33:31;18.77;;;7.60;;
25123;SDS011;13104;51.030;4.686;2022-11-15T05:36:02;14.52;;;7.32;;
25123;SDS011;13104;51.030;4.686;2022-11-15T05:38:29;14.07;;;7.57;;
25123;SDS011;13104;51.030;4.686;2022-11-15T05:40:56;13.77;;;7.88;;
25123;SDS011;13104;51.030;4.686;2022-11-15T05:43:22;14.95;;;7.63;;
25123;SDS011;13104;51.030;4.686;2022-11-15T05:45:48;13.27;;;7.40;;
25123;SDS011;13104;51.030;4.686;2022-11-15T05:48:15;17.58;;;7.85;;
25123;SDS011;13104;51.030;4.686;2022-11-15T05:50:42;13.80;;;7.20;;
25123;SDS011;13104;51.030;4.686;2022-11-15T05:53:09;13.32;;;7.55;;
25123;SDS011;13104;51.030;4.686;2022-11-15T05:55:37;12.02;;;7.22;;
25123;SDS011;13104;51.030;4.686;2022-11-15T05:58:03;15.52;;;7.70;;
25123;SDS011;13104;51.030;4.686;2022-11-15T06:00:29;12.85;;;7.25;;
25123;SDS011;13104;51.030;4.686;2022-11-15T06:02:55;16.98;;;7.25;;
25123;SDS011;13104;51.030;4.686;2022-11-15T06:05:21;13.90;;;6.20;;
25123;SDS011;13104;51.030;4.686;2022-11-15T06:07:47;12.80;;;7.15;;
25123;SDS011;13104;51.030;4.686;2022-11-15T06:10:13;12.60;;;6.53;;
25123;SDS011;13104;51.030;4.686;2022-11-15T06:12:39;12.23;;;5.65;;
25123;SDS011;13104;51.030;4.686;2022-11-15T06:15:06;12.02;;;6.60;;
25123;SDS011;13104;51.030;4.686;2022-11-15T06:17:32;14.13;;;6.72;;
25123;SDS011;13104;51.030;4.686;2022-11-15T06:19:58;14.88;;;6.40;;
25123;SDS011;13104;51.030;4.686;2022-11-15T06:22:24;11.75;;;6.95;;
25123;SDS011;13104;51.030;4.686;2022-11-15T06:24:50;14.82;;;7.03;;
25123;SDS011;13104;51.030;4.686;2022-11-15T06:27:16;8.98;;;6.50;;
25123;SDS011;13104;51.030;4.686;2022-11-15T06:29:43;12.38;;;7.47;;
25123;SDS011;13104;51.030;4.686;2022-11-15T06:32:09;13.90;;;7.13;;
25123;SDS011;13104;51.030;4.686;2022-11-15T06:34:35;15.73;;;6.70;;
25123;SDS011;13104;51.030;4.686;2022-11-15T06:37:02;13.48;;;6.22;;
25123;SDS011;13104;51.030;4.686;2022-11-15T06:39:28;11.55;;;6.55;;
25123;SDS011;13104;51.030;4.686;2022-11-15T06:41:54;17.73;;;6.80;;
25123;SDS011;13104;51.030;4.686;2022-11-15T06:44:20;28.52;;;7.03;;
25123;SDS011;13104;51.030;4.686;2022-11-15T06:46:46;14.73;;;6.80;;
25123;SDS011;13104;51.030;4.686;2022-11-15T06:49:12;14.82;;;7.35;;
25123;SDS011;13104;51.030;4.686;2022-11-15T06:51:39;17.05;;;7.85;;
25123;SDS011;13104;51.030;4.686;2022-11-15T06:54:05;15.32;;;7.75;;
25123;SDS011;13104;51.030;4.686;2022-11-15T06:56:31;14.88;;;8.10;;
25123;SDS011;13104;51.030;4.686;2022-11-15T06:58:57;13.65;;;8.23;;
25123;SDS011;13104;51.030;4.686;2022-11-15T07:01:23;15.77;;;8.60;;
25123;SDS011;13104;51.030;4.686;2022-11-15T07:03:49;14.85;;;8.52;;
25123;SDS011;13104;51.030;4.686;2022-11-15T07:06:15;12.52;;;8.60;;
25123;SDS011;13104;51.030;4.686;2022-11-15T07:08:42;13.02;;;8.70;;
25123;SDS011;13104;51.030;4.686;2022-11-15T07:11:08;16.58;;;8.95;;
25123;SDS011;13104;51.030;4.686;2022-11-15T07:13:35;17.98;;;8.88;;
25123;SDS011;13104;51.030;4.686;2022-11-15T07:16:05;15.18;;;8.45;;
25123;SDS011;13104;51.030;4.686;2022-11-15T07:18:33;18.02;;;9.10;;
25123;SDS011;13104;51.030;4.686;2022-11-15T07:21:03;13.70;;;8.40;;
25123;SDS011;13104;51.030;4.686;2022-11-15T07:23:29;18.27;;;8.43;;
25123;SDS011;13104;51.030;4.686;2022-11-15T07:25:58;19.17;;;9.45;;
25123;SDS011;13104;51.030;4.686;2022-11-15T07:28:28;17.80;;;9.88;;
25123;SDS011;13104;51.030;4.686;2022-11-15T07:30:54;19.20;;;9.93;;
25123;SDS011;13104;51.030;4.686;2022-11-15T07:33:20;24.38;;;10.27;;
25123;SDS011;13104;51.030;4.686;2022-11-15T07:35:46;19.20;;;10.00;;
25123;SDS011;13104;51.030;4.686;2022-11-15T07:38:15;15.63;;;10.52;;
25123;SDS011;13104;51.030;4.686;2022-11-15T07:40:45;17.67;;;9.65;;
25123;SDS011;13104;51.030;4.686;2022-11-15T07:43:11;14.45;;;9.48;;
25123;SDS011;13104;51.030;4.686;2022-11-15T07:45:41;16.33;;;9.55;;
25123;SDS011;13104;51.030;4.686;2022-11-15T07:48:08;15.27;;;9.60;;
25123;SDS011;13104;51.030;4.686;2022-11-15T07:50:34;20.33;;;8.93;;
25123;SDS011;13104;51.030;4.686;2022-11-15T07:53:00;14.50;;;8.45;;
25123;SDS011;13104;51.030;4.686;2022-11-15T07:55:26;14.57;;;9.25;;
25123;SDS011;13104;51.030;4.686;2022-11-15T07:58:15;17.42;;;9.50;;
25123;SDS011;13104;51.030;4.686;2022-11-15T08:00:40;18.20;;;9.40;;
25123;SDS011;13104;51.030;4.686;2022-11-15T08:05:33;18.88;;;9.10;;
25123;SDS011;13104;51.030;4.686;2022-11-15T08:07:59;17.55;;;8.45;;
25123;SDS011;13104;51.030;4.686;2022-11-15T08:10:25;15.45;;;7.93;;
25123;SDS011;13104;51.030;4.686;2022-11-15T08:13:05;15.10;;;7.68;;
25123;SDS011;13104;51.030;4.686;2022-11-15T08:15:32;16.40;;;7.50;;
25123;SDS011;13104;51.030;4.686;2022-11-15T08:17:58;16.40;;;7.18;;
25123;SDS011;13104;51.030;4.686;2022-11-15T08:20:25;13.00;;;6.63;;
25123;SDS011;13104;51.030;4.686;2022-11-15T08:22:51;8.95;;;5.70;;
25123;SDS011;13104;51.030;4.686;2022-11-15T08:25:17;14.43;;;6.07;;
25123;SDS011;13104;51.030;4.686;2022-11-15T08:27:44;11.48;;;5.93;;
25123;SDS011;13104;51.030;4.686;2022-11-15T08:30:10;11.57;;;5.05;;
25123;SDS011;13104;51.030;4.686;2022-11-15T08:32:36;11.30;;;4.82;;
25123;SDS011;13104;51.030;4.686;2022-11-15T08:35:03;10.73;;;4.55;;
25123;SDS011;13104;51.030;4.686;2022-11-15T08:37:29;14.32;;;4.50;;
25123;SDS011;13104;51.030;4.686;2022-11-15T08:39:55;12.60;;;4.90;;
25123;SDS011;13104;51.030;4.686;2022-11-15T08:42:21;14.15;;;5.25;;
25123;SDS011;13104;51.030;4.686;2022-11-15T08:44:47;10.43;;;4.35;;
25123;SDS011;13104;51.030;4.686;2022-11-15T08:47:13;11.88;;;3.90;;
25123;SDS011;13104;51.030;4.686;2022-11-15T08:49:39;12.18;;;3.75;;
25123;SDS011;13104;51.030;4.686;2022-11-15T08:52:05;8.23;;;2.88;;
25123;SDS011;13104;51.030;4.686;2022-11-15T08:54:31;10.38;;;2.90;;
25123;SDS011;13104;51.030;4.686;2022-11-15T08:56:57;11.98;;;2.92;;
25123;SDS011;13104;51.030;4.686;2022-11-15T08:59:23;7.80;;;2.88;;
25123;SDS011;13104;51.030;4.686;2022-11-15T09:01:49;7.68;;;2.30;;
25123;SDS011;13104;51.030;4.686;2022-11-15T09:04:16;11.40;;;2.53;;
25123;SDS011;13104;51.030;4.686;2022-11-15T09:06:43;9.10;;;2.17;;
25123;SDS011;13104;51.030;4.686;2022-11-15T09:09:09;5.65;;;2.08;;
25123;SDS011;13104;51.030;4.686;2022-11-15T09:11:35;7.32;;;1.90;;
25123;SDS011;13104;51.030;4.686;2022-11-15T09:14:01;11.93;;;2.25;;
25123;SDS011;13104;51.030;4.686;2022-11-15T09:16:27;5.10;;;2.05;;
25123;SDS011;13104;51.030;4.686;2022-11-15T09:18:53;6.32;;;2.28;;
25123;SDS011;13104;51.030;4.686;2022-11-15T09:21:19;6.57;;;1.52;;
25123;SDS011;13104;51.030;4.686;2022-11-15T09:23:45;6.20;;;1.88;;
25123;SDS011;13104;51.030;4.686;2022-11-15T09:26:12;5.78;;;1.90;;
25123;SDS011;13104;51.030;4.686;2022-11-15T09:28:38;5.57;;;2.00;;
25123;SDS011;13104;51.030;4.686;2022-11-15T09:31:06;6.18;;;1.75;;
25123;SDS011;13104;51.030;4.686;2022-11-15T09:33:32;10.85;;;1.73;;
25123;SDS011;13104;51.030;4.686;2022-11-15T09:36:06;7.55;;;1.75;;
25123;SDS011;13104;51.030;4.686;2022-11-15T09:38:32;6.83;;;2.20;;
25123;SDS011;13104;51.030;4.686;2022-11-15T09:41:13;8.93;;;1.80;;
25123;SDS011;13104;51.030;4.686;2022-11-15T09:49:02;5.15;;;1.75;;
25123;SDS011;13104;51.030;4.686;2022-11-15T09:51:36;8.25;;;2.22;;
25123;SDS011;13104;51.030;4.686;2022-11-15T09:56:45;13.73;;;1.88;;
25123;SDS011;13104;51.030;4.686;2022-11-15T10:01:45;8.30;;;1.83;;
25123;SDS011;13104;51.030;4.686;2022-11-15T10:04:15;6.30;;;1.97;;
25123;SDS011;13104;51.030;4.686;2022-11-15T10:06:46;8.77;;;1.88;;
25123;SDS011;13104;51.030;4.686;2022-11-15T10:09:17;6.45;;;1.15;;
25123;SDS011;13104;51.030;4.686;2022-11-15T10:11:45;7.15;;;1.80;;
25123;SDS011;13104;51.030;4.686;2022-11-15T10:14:12;8.15;;;1.52;;
25123;SDS011;13104;51.030;4.686;2022-11-15T10:24:34;8.85;;;1.48;;
25123;SDS011;13104;51.030;4.686;2022-11-15T10:27:01;9.50;;;1.65;;
25123;SDS011;13104;51.030;4.686;2022-11-15T10:29:27;7.50;;;1.55;;
25123;SDS011;13104;51.030;4.686;2022-11-15T10:31:53;8.82;;;2.17;;
25123;SDS011;13104;51.030;4.686;2022-11-15T10:34:20;7.85;;;1.50;;
25123;SDS011;13104;51.030;4.686;2022-11-15T10:36:56;4.53;;;1.42;;
25123;SDS011;13104;51.030;4.686;2022-11-15T10:39:22;6.97;;;1.42;;
25123;SDS011;13104;51.030;4.686;2022-11-15T10:41:48;8.95;;;1.33;;
25123;SDS011;13104;51.030;4.686;2022-11-15T10:44:30;11.05;;;2.17;;
25123;SDS011;13104;51.030;4.686;2022-11-15T10:49:24;11.20;;;1.70;;
25123;SDS011;13104;51.030;4.686;2022-11-15T10:51:54;10.85;;;1.83;;
25123;SDS011;13104;51.030;4.686;2022-11-15T10:56:51;9.13;;;1.85;;
25123;SDS011;13104;51.030;4.686;2022-11-15T10:59:22;4.90;;;1.83;;
25123;SDS011;13104;51.030;4.686;2022-11-15T11:01:49;9.57;;;1.50;;
25123;SDS011;13104;51.030;4.686;2022-11-15T11:04:15;9.45;;;1.63;;
25123;SDS011;13104;51.030;4.686;2022-11-15T11:11:51;8.57;;;1.80;;
25123;SDS011;13104;51.030;4.686;2022-11-15T11:14:20;6.88;;;1.92;;
25123;SDS011;13104;51.030;4.686;2022-11-15T11:16:49;17.25;;;6.30;;
25123;SDS011;13104;51.030;4.686;2022-11-15T11:21:51;9.27;;;2.78;;
25123;SDS011;13104;51.030;4.686;2022-11-15T11:29:41;6.15;;;1.63;;
25123;SDS011;13104;51.030;4.686;2022-11-15T11:42:56;5.50;;;1.45;;
25123;SDS011;13104;51.030;4.686;2022-11-15T11:45:39;5.05;;;1.20;;
25123;SDS011;13104;51.030;4.686;2022-11-15T11:48:13;6.10;;;1.33;;
25123;SDS011;13104;51.030;4.686;2022-11-15T11:50:40;9.93;;;1.50;;
25123;SDS011;13104;51.030;4.686;2022-11-15T11:55:53;5.50;;;1.67;;
25123;SDS011;13104;51.030;4.686;2022-11-15T11:58:28;3.90;;;1.40;;
25123;SDS011;13104;51.030;4.686;2022-11-15T12:01:02;5.70;;;1.60;;
25123;SDS011;13104;51.030;4.686;2022-11-15T12:04:30;8.82;;;1.80;;
25123;SDS011;13104;51.030;4.686;2022-11-15T12:08:56;11.57;;;1.67;;
25123;SDS011;13104;51.030;4.686;2022-11-15T12:11:26;8.75;;;1.50;;
25123;SDS011;13104;51.030;4.686;2022-11-15T12:13:56;5.35;;;1.50;;
25123;SDS011;13104;51.030;4.686;2022-11-15T12:16:26;7.53;;;2.05;;
25123;SDS011;13104;51.030;4.686;2022-11-15T12:18:53;8.63;;;1.60;;
25123;SDS011;13104;51.030;4.686;2022-11-15T12:23:49;7.68;;;1.27;;
25123;SDS011;13104;51.030;4.686;2022-11-15T12:26:18;7.90;;;1.30;;
25123;SDS011;13104;51.030;4.686;2022-11-15T12:28:52;10.27;;;1.30;;
25123;SDS011;13104;51.030;4.686;2022-11-15T12:34:04;7.90;;;1.75;;
25123;SDS011;13104;51.030;4.686;2022-11-15T12:36:48;8.25;;;1.55;;
25123;SDS011;13104;51.030;4.686;2022-11-15T12:39:15;5.38;;;1.30;;
25123;SDS011;13104;51.030;4.686;2022-11-15T13:04:50;4.28;;;1.20;;
25123;SDS011;13104;51.030;4.686;2022-11-15T13:10:06;6.53;;;1.23;;
25123;SDS011;13104;51.030;4.686;2022-11-15T13:27:46;7.07;;;1.50;;
25123;SDS011;13104;51.030;4.686;2022-11-15T13:30:15;4.57;;;1.40;;
25123;SDS011;13104;51.030;4.686;2022-11-15T13:32:44;4.20;;;1.30;;
25123;SDS011;13104;51.030;4.686;2022-11-15T13:35:15;5.05;;;1.42;;
25123;SDS011;13104;51.030;4.686;2022-11-15T13:37:44;4.50;;;1.27;;
25123;SDS011;13104;51.030;4.686;2022-11-15T13:40:55;5.00;;;1.35;;
25123;SDS011;13104;51.030;4.686;2022-11-15T13:42:56;7.05;;;1.88;;
25123;SDS011;13104;51.030;4.686;2022-11-15T13:45:23;5.68;;;1.42;;
25123;SDS011;13104;51.030;4.686;2022-11-15T13:47:57;5.03;;;1.45;;
25123;SDS011;13104;51.030;4.686;2022-11-15T13:50:25;4.72;;;1.50;;
25123;SDS011;13104;51.030;4.686;2022-11-15T13:52:52;5.63;;;1.38;;
25123;SDS011;13104;51.030;4.686;2022-11-15T13:55:20;3.15;;;1.00;;
25123;SDS011;13104;51.030;4.686;2022-11-15T14:00:59;6.15;;;1.42;;
25123;SDS011;13104;51.030;4.686;2022-11-15T14:03:26;5.13;;;1.60;;
25123;SDS011;13104;51.030;4.686;2022-11-15T14:06:26;9.93;;;1.27;;
25123;SDS011;13104;51.030;4.686;2022-11-15T14:11:35;5.82;;;1.48;;
25123;SDS011;13104;51.030;4.686;2022-11-15T14:16:32;5.55;;;1.63;;
25123;SDS011;13104;51.030;4.686;2022-11-15T14:18:59;4.50;;;1.30;;
25123;SDS011;13104;51.030;4.686;2022-11-15T14:21:25;3.28;;;1.30;;
25123;SDS011;13104;51.030;4.686;2022-11-15T14:23:51;3.63;;;1.45;;
25123;SDS011;13104;51.030;4.686;2022-11-15T14:26:30;5.18;;;1.65;;
25123;SDS011;13104;51.030;4.686;2022-11-15T14:28:57;19.65;;;3.63;;
25123;SDS011;13104;51.030;4.686;2022-11-15T14:31:43;4.35;;;1.70;;
25123;SDS011;13104;51.030;4.686;2022-11-15T14:34:11;5.85;;;1.52;;
25123;SDS011;13104;51.030;4.686;2022-11-15T14:36:37;8.77;;;2.30;;
25123;SDS011;13104;51.030;4.686;2022-11-15T14:39:03;5.18;;;1.60;;
25123;SDS011;13104;51.030;4.686;2022-11-15T14:41:33;5.35;;;1.70;;
25123;SDS011;13104;51.030;4.686;2022-11-15T14:44:02;5.97;;;2.17;;
25123;SDS011;13104;51.030;4.686;2022-11-15T14:46:28;3.22;;;1.80;;
25123;SDS011;13104;51.030;4.686;2022-11-15T14:48:54;6.00;;;1.60;;
25123;SDS011;13104;51.030;4.686;2022-11-15T14:51:21;3.28;;;1.75;;
25123;SDS011;13104;51.030;4.686;2022-11-15T14:53:47;3.13;;;1.75;;
25123;SDS011;13104;51.030;4.686;2022-11-15T14:56:13;4.05;;;1.60;;
25123;SDS011;13104;51.030;4.686;2022-11-15T14:58:40;5.65;;;1.88;;
25123;SDS011;13104;51.030;4.686;2022-11-15T15:01:13;5.07;;;1.80;;
25123;SDS011;13104;51.030;4.686;2022-11-15T15:03:39;5.18;;;2.08;;
25123;SDS011;13104;51.030;4.686;2022-11-15T15:06:06;6.07;;;2.03;;
25123;SDS011;13104;51.030;4.686;2022-11-15T15:08:34;3.75;;;1.77;;
25123;SDS011;13104;51.030;4.686;2022-11-15T15:11:00;8.13;;;2.08;;
25123;SDS011;13104;51.030;4.686;2022-11-15T15:13:26;3.67;;;1.67;;
25123;SDS011;13104;51.030;4.686;2022-11-15T15:15:55;5.95;;;1.95;;
25123;SDS011;13104;51.030;4.686;2022-11-15T15:18:21;3.97;;;1.70;;
25123;SDS011;13104;51.030;4.686;2022-11-15T15:20:54;5.15;;;2.00;;
25123;SDS011;13104;51.030;4.686;2022-11-15T15:23:22;4.75;;;2.08;;
25123;SDS011;13104;51.030;4.686;2022-11-15T15:25:50;11.00;;;2.25;;
25123;SDS011;13104;51.030;4.686;2022-11-15T15:28:17;2.30;;;1.75;;
25123;SDS011;13104;51.030;4.686;2022-11-15T15:30:44;4.18;;;1.88;;
25123;SDS011;13104;51.030;4.686;2022-11-15T15:33:10;5.32;;;2.15;;
25123;SDS011;13104;51.030;4.686;2022-11-15T15:35:36;5.70;;;2.30;;
25123;SDS011;13104;51.030;4.686;2022-11-15T15:38:12;5.90;;;2.20;;
25123;SDS011;13104;51.030;4.686;2022-11-15T15:40:38;4.70;;;2.20;;
25123;SDS011;13104;51.030;4.686;2022-11-15T15:43:16;6.18;;;2.40;;
25123;SDS011;13104;51.030;4.686;2022-11-15T15:45:44;3.55;;;2.25;;
25123;SDS011;13104;51.030;4.686;2022-11-15T15:48:11;4.13;;;2.28;;
25123;SDS011;13104;51.030;4.686;2022-11-15T15:50:38;3.17;;;2.28;;
25123;SDS011;13104;51.030;4.686;2022-11-15T15:53:04;4.22;;;2.08;;
25123;SDS011;13104;51.030;4.686;2022-11-15T15:55:32;4.20;;;2.33;;
25123;SDS011;13104;51.030;4.686;2022-11-15T15:57:59;5.03;;;2.10;;
25123;SDS011;13104;51.030;4.686;2022-11-15T16:00:25;3.08;;;2.38;;
25123;SDS011;13104;51.030;4.686;2022-11-15T16:02:52;4.55;;;2.60;;
25123;SDS011;13104;51.030;4.686;2022-11-15T16:05:18;7.05;;;2.33;;
25123;SDS011;13104;51.030;4.686;2022-11-15T16:07:45;5.20;;;2.30;;
25123;SDS011;13104;51.030;4.686;2022-11-15T16:10:16;5.97;;;2.88;;
25123;SDS011;13104;51.030;4.686;2022-11-15T16:12:43;6.65;;;3.00;;
25123;SDS011;13104;51.030;4.686;2022-11-15T16:15:09;4.75;;;2.70;;
25123;SDS011;13104;51.030;4.686;2022-11-15T16:17:37;6.18;;;2.58;;
25123;SDS011;13104;51.030;4.686;2022-11-15T16:20:04;5.13;;;2.78;;
25123;SDS011;13104;51.030;4.686;2022-11-15T16:22:30;5.07;;;2.85;;
25123;SDS011;13104;51.030;4.686;2022-11-15T16:24:56;9.32;;;4.38;;
25123;SDS011;13104;51.030;4.686;2022-11-15T16:27:23;6.68;;;4.43;;
25123;SDS011;13104;51.030;4.686;2022-11-15T16:29:49;8.38;;;4.38;;
25123;SDS011;13104;51.030;4.686;2022-11-15T16:32:15;6.40;;;4.72;;
25123;SDS011;13104;51.030;4.686;2022-11-15T16:34:41;10.90;;;6.55;;
25123;SDS011;13104;51.030;4.686;2022-11-15T16:37:12;17.75;;;8.82;;
25123;SDS011;13104;51.030;4.686;2022-11-15T16:39:44;5.70;;;3.65;;
25123;SDS011;13104;51.030;4.686;2022-11-15T16:42:10;6.90;;;3.95;;
25123;SDS011;13104;51.030;4.686;2022-11-15T16:44:36;6.45;;;4.28;;
25123;SDS011;13104;51.030;4.686;2022-11-15T16:47:02;8.55;;;3.90;;
25123;SDS011;13104;51.030;4.686;2022-11-15T16:49:29;6.72;;;3.45;;
25123;SDS011;13104;51.030;4.686;2022-11-15T16:51:55;6.75;;;4.25;;
25123;SDS011;13104;51.030;4.686;2022-11-15T16:54:21;6.53;;;3.88;;
25123;SDS011;13104;51.030;4.686;2022-11-15T16:56:47;6.35;;;3.20;;
25123;SDS011;13104;51.030;4.686;2022-11-15T16:59:14;8.02;;;3.95;;
25123;SDS011;13104;51.030;4.686;2022-11-15T17:01:41;6.38;;;3.42;;
25123;SDS011;13104;51.030;4.686;2022-11-15T17:04:14;6.07;;;4.20;;